Time;durP1;ratioP1;P1;durP2;ratioP2;P2;SDS_P1;SDS_P2;PMS_P1;PMS_P2;Temp;Humidity;BMP_temperature;BMP_pressure;BME280_temperature;BME280_humidity;BME280_pressure;Samples;Min_cycle;Max_cycle;Signal;HPM_P1;HPM_P2
2023/06/07 00:01:28;;;;;;;9.40;3.45;;;;;;;22.01;62.16;99571.22;4475598;32;33991;-74
2023/06/07 00:03:57;;;;;;;5.03;2.75;;;;;;;21.97;62.15;99571.81;4479745;32;32616;-74
2023/06/07 00:06:25;;;;;;;5.37;2.83;;;;;;;21.93;62.19;99568.63;4479253;31;33345;-72
2023/06/07 00:08:52;;;;;;;6.90;3.25;;;;;;;21.96;61.80;99562.78;4476629;31;34833;-72
2023/06/07 00:11:21;;;;;;;10.25;2.90;;;;;;;21.94;61.78;99564.84;4479132;31;34054;-73
2023/06/07 00:13:50;;;;;;;4.53;2.75;;;;;;;21.98;61.55;99560.69;4479518;32;34640;-72
2023/06/07 00:16:18;;;;;;;5.62;3.40;;;;;;;21.98;61.72;99566.16;4478326;31;34348;-72
2023/06/07 00:18:45;;;;;;;7.25;3.10;;;;;;;22.04;61.41;99559.09;4478015;31;33861;-72
2023/06/07 00:21:13;;;;;;;6.00;3.78;;;;;;;22.04;61.28;99562.66;4478768;31;33843;-72
2023/06/07 00:23:40;;;;;;;6.28;3.40;;;;;;;22.04;61.42;99562.66;4473023;32;33880;-72
2023/06/07 00:26:08;;;;;;;5.10;2.85;;;;;;;22.07;61.26;99566.87;4479464;31;33397;-73
2023/06/07 00:28:36;;;;;;;4.62;2.75;;;;;;;22.01;61.73;99559.47;4479798;31;33918;-73
2023/06/07 00:31:04;;;;;;;5.50;2.90;;;;;;;22.06;61.84;99565.19;4473967;32;33998;-72
2023/06/07 00:33:32;;;;;;;4.95;2.90;;;;;;;22.07;61.81;99565.00;4478944;31;34601;-72
2023/06/07 00:36:00;;;;;;;5.32;2.37;;;;;;;22.07;61.74;99566.87;4478855;31;33420;-73
2023/06/07 00:38:27;;;;;;;7.12;3.05;;;;;;;22.10;61.59;99563.78;4474441;31;33417;-73
2023/06/07 00:40:55;;;;;;;6.12;3.25;;;;;;;22.06;61.36;99574.22;4479962;32;31998;-71
2023/06/07 00:43:24;;;;;;;5.15;2.92;;;;;;;22.04;61.26;99570.84;4479046;31;35030;-72
2023/06/07 00:45:52;;;;;;;5.85;2.70;;;;;;;22.06;61.12;99567.94;4478097;32;34619;-71
2023/06/07 00:48:20;;;;;;;8.75;3.20;;;;;;;22.09;61.08;99567.53;4475243;31;33518;-71
2023/06/07 00:50:47;;;;;;;5.55;3.08;;;;;;;22.10;61.15;99566.50;4475926;32;35076;-72
2023/06/07 00:53:16;;;;;;;7.53;3.75;;;;;;;22.12;61.26;99572.59;4475417;32;34912;-71
2023/06/07 00:55:44;;;;;;;7.80;3.47;;;;;;;22.10;61.60;99569.22;4478382;31;33340;-70
2023/06/07 00:58:11;;;;;;;6.18;3.03;;;;;;;22.10;61.38;99563.78;4478565;31;34646;-70
2023/06/07 01:00:39;;;;;;;4.40;2.72;;;;;;;22.10;61.24;99559.16;4470376;32;35211;-72
2023/06/07 01:03:06;;;;;;;4.62;2.50;;;;;;;22.10;61.36;99567.34;4478881;31;32634;-72
2023/06/07 01:05:35;;;;;;;13.50;3.35;;;;;;;22.09;61.44;99562.94;4474179;32;33614;-71
2023/06/07 01:08:03;;;;;;;6.45;3.50;;;;;;;22.09;61.05;99562.09;4476677;31;33793;-69
2023/06/07 01:10:31;;;;;;;8.13;3.67;;;;;;;22.07;61.39;99562.28;4478811;31;34930;-71
2023/06/07 01:13:02;;;;;;;4.57;2.35;;;;;;;22.07;61.15;99562.28;4480134;32;33586;-71
2023/06/07 01:15:31;;;;;;;7.20;3.42;;;;;;;22.08;61.12;99561.22;4473810;31;31925;-71
2023/06/07 01:17:59;;;;;;;6.50;3.53;;;;;;;22.08;61.15;99550.31;4478406;31;33784;-71
2023/06/07 01:20:27;;;;;;;4.47;2.62;;;;;;;22.06;61.37;99555.12;4480169;32;35238;-72
2023/06/07 01:22:57;;;;;;;5.80;2.80;;;;;;;22.00;61.70;99550.47;4479330;31;35300;-70
2023/06/07 01:25:26;;;;;;;7.37;3.58;;;;;;;21.97;61.71;99544.56;4478474;31;33227;-69
2023/06/07 01:27:55;;;;;;;14.87;3.17;;;;;;;21.95;61.78;99538.44;4479287;31;34368;-71
2023/06/07 01:30:23;;;;;;;8.23;3.28;;;;;;;21.99;61.78;99537.88;4481484;32;34978;-70
2023/06/07 01:32:52;;;;;;;7.03;3.35;;;;;;;22.03;61.75;99543.78;4481450;31;34930;-71
2023/06/07 01:35:22;;;;;;;6.35;3.35;;;;;;;22.04;61.85;99545.47;4477253;31;33542;-72
2023/06/07 01:37:50;;;;;;;4.20;2.35;;;;;;;22.00;61.83;99538.72;4479530;31;33354;-72
2023/06/07 01:40:20;;;;;;;3.83;2.08;;;;;;;22.02;61.62;99533.91;4475931;31;34045;-75
2023/06/07 01:42:49;;;;;;;6.32;2.67;;;;;;;22.02;61.63;99531.19;4483558;32;32356;-74
2023/06/07 01:45:17;;;;;;;5.90;2.87;;;;;;;22.03;61.52;99538.34;4480620;31;33277;-73
2023/06/07 01:47:45;;;;;;;5.47;3.33;;;;;;;21.99;61.52;99531.56;4483190;31;33742;-73
2023/06/07 01:50:20;;;;;;;5.00;2.58;;;;;;;21.89;61.75;99529.16;4478748;32;33744;-73
2023/06/07 01:52:47;;;;;;;;;;;;;;;22.04;61.11;99532.69;4481780;32;33550;-74
2023/06/07 01:55:15;;;;;;;6.65;2.90;;;;;;;22.02;61.27;99534.78;4482300;31;34312;-74
2023/06/07 01:58:06;;;;;;;4.75;2.70;;;;;;;21.98;61.24;99529.88;4481637;32;33885;-75
2023/06/07 02:01:02;;;;;;;7.50;3.17;;;;;;;21.95;61.32;99531.09;4475394;32;33474;-73
2023/06/07 02:03:41;;;;;;;7.60;2.78;;;;;;;21.94;61.36;99528.59;4481541;31;33890;-74
2023/06/07 02:06:12;;;;;;;7.82;3.30;;;;;;;21.95;61.81;99531.09;4499822;31;34265;-72
2023/06/07 02:08:47;;;;;;;5.18;3.10;;;;;;;21.94;62.06;99532.16;4481859;32;33939;-73
2023/06/07 02:11:16;;;;;;;5.90;3.25;;;;;;;21.95;62.05;99533.84;4482664;31;35263;-76
2023/06/07 02:13:44;;;;;;;6.45;3.50;;;;;;;22.00;61.90;99533.28;4481020;31;33556;-75
2023/06/07 02:16:12;;;;;;;4.65;2.55;;;;;;;21.98;61.82;99533.44;4482762;32;33356;-73
2023/06/07 02:18:43;;;;;;;4.32;2.97;;;;;;;22.01;61.89;99543.13;4480697;31;34901;-75
2023/06/07 02:21:10;;;;;;;5.30;2.42;;;;;;;22.05;61.77;99538.97;4483305;32;35067;-75
2023/06/07 02:23:40;;;;;;;4.95;2.83;;;;;;;22.06;61.62;99536.06;4481884;32;33917;-74
2023/06/07 02:26:07;;;;;;;5.70;3.33;;;;;;;22.07;61.52;99535.00;4482318;32;34676;-75
2023/06/07 02:28:35;;;;;;;5.32;3.28;;;;;;;22.07;61.78;99534.19;4482346;32;33759;-73
2023/06/07 02:31:03;;;;;;;7.53;2.70;;;;;;;22.01;62.00;99529.50;4482106;31;33990;-74
2023/06/07 02:33:32;;;;;;;6.15;3.33;;;;;;;22.04;61.85;99529.13;4482392;32;34773;-73
2023/06/07 02:36:00;;;;;;;6.82;2.97;;;;;;;22.03;61.85;99525.56;4479411;32;33359;-74
2023/06/07 02:38:28;;;;;;;5.47;2.35;;;;;;;22.04;61.89;99524.50;4483525;32;34286;-76
2023/06/07 02:40:55;;;;;;;5.07;3.22;;;;;;;22.04;61.90;99529.13;4480719;31;35955;-76
2023/06/07 02:43:24;;;;;;;6.25;2.65;;;;;;;22.04;61.91;99527.22;4480234;32;33923;-74
2023/06/07 02:45:52;;;;;;;6.20;2.90;;;;;;;22.04;61.87;99527.22;4480798;32;33754;-75
2023/06/07 02:48:20;;;;;;;5.87;2.70;;;;;;;22.02;62.01;99528.44;4482598;32;33615;-77
2023/06/07 02:50:48;;;;;;;5.22;2.92;;;;;;;22.02;62.14;99521.16;4482270;31;33958;-76
2023/06/07 02:53:15;;;;;;;12.65;3.45;;;;;;;22.02;62.08;99529.31;4482136;32;33732;-74
2023/06/07 02:55:43;;;;;;;4.72;2.65;;;;;;;22.02;61.71;99525.72;4482783;32;32019;-75
2023/06/07 02:58:11;;;;;;;4.85;2.65;;;;;;;22.00;61.36;99528.66;4483174;31;34927;-80
2023/06/07 03:00:39;;;;;;;8.68;3.92;;;;;;;21.98;61.32;99529.88;4482813;32;33900;-78
2023/06/07 03:03:07;;;;;;;3.37;2.15;;;;;;;21.91;61.45;99528.97;4483552;32;33930;-73
2023/06/07 03:05:36;;;;;;;5.32;2.78;;;;;;;21.83;61.56;99533.53;4481205;32;34452;-74
2023/06/07 03:08:05;;;;;;;5.75;2.85;;;;;;;21.74;61.74;99531.09;4483044;31;32435;-74
2023/06/07 03:10:33;;;;;;;7.10;3.28;;;;;;;21.78;61.61;99529.69;4483407;32;34037;-74
2023/06/07 03:13:02;;;;;;;7.75;2.55;;;;;;;21.71;61.85;99531.50;4472204;32;34955;-73
2023/06/07 03:15:30;;;;;;;6.43;3.20;;;;;;;21.68;61.92;99526.44;4479107;32;34319;-73
2023/06/07 03:17:58;;;;;;;17.77;3.30;;;;;;;21.67;61.99;99528.31;4481307;31;32304;-71
2023/06/07 03:20:28;;;;;;;6.62;2.78;;;;;;;21.67;62.06;99532.88;4481843;31;34026;-73
2023/06/07 03:22:57;;;;;;;6.57;3.28;;;;;;;21.65;61.97;99527.63;4483565;32;33499;-68
2023/06/07 03:25:25;;;;;;;5.90;2.60;;;;;;;21.63;62.04;99535.16;4482566;32;33386;-70
2023/06/07 03:27:53;;;;;;;5.22;2.80;;;;;;;21.63;62.23;99541.44;4481840;31;33697;-69
2023/06/07 03:30:21;;;;;;;5.78;3.08;;;;;;;21.61;62.43;99529.91;4477265;32;33992;-69
2023/06/07 03:32:49;;;;;;;6.72;3.62;;;;;;;21.63;62.49;99527.81;4483424;32;33638;-72
2023/06/07 03:35:18;;;;;;;4.20;2.55;;;;;;;21.59;62.60;99523.81;4477064;31;33326;-73
2023/06/07 03:37:46;;;;;;;7.30;3.25;;;;;;;21.59;62.65;99531.97;4482844;31;33511;-72
2023/06/07 03:40:15;;;;;;;7.07;2.85;;;;;;;21.62;62.64;99537.03;4484188;32;34471;-71
2023/06/07 03:42:42;;;;;;;8.38;3.22;;;;;;;21.63;62.80;99543.31;4475153;32;34781;-78
2023/06/07 03:45:10;;;;;;;4.72;2.95;;;;;;;21.65;62.82;99541.25;4478858;32;33445;-76
2023/06/07 03:47:39;;;;;;;7.32;3.00;;;;;;;21.65;62.81;99548.59;4482407;31;33697;-78
2023/06/07 03:50:08;;;;;;;4.95;2.70;;;;;;;21.65;62.86;99548.59;4479422;31;33793;-77
2023/06/07 03:52:36;;;;;;;10.77;4.07;;;;;;;21.68;62.79;99548.22;4480519;31;33849;-78
2023/06/07 03:55:04;;;;;;;3.55;2.03;;;;;;;21.62;63.09;99547.09;4483106;32;32124;-65
2023/06/07 03:57:32;;;;;;;7.87;3.42;;;;;;;21.64;63.07;99542.31;4480321;31;34949;-78
2023/06/07 04:00:00;;;;;;;6.20;2.87;;;;;;;21.66;63.18;99550.28;4483861;32;33918;-68
2023/06/07 04:02:29;;;;;;;8.45;3.83;;;;;;;21.56;63.70;99540.53;4468334;32;33048;-79
2023/06/07 04:04:57;;;;;;;7.68;2.78;;;;;;;21.64;63.51;99545.03;4482245;32;33271;-78
2023/06/07 04:07:27;;;;;;;11.38;2.78;;;;;;;21.71;63.26;99539.66;4479546;31;33975;-78
2023/06/07 04:09:54;;;;;;;9.02;3.83;;;;;;;21.75;63.19;99544.53;4482047;31;33857;-77
2023/06/07 04:12:22;;;;;;;8.77;3.87;;;;;;;21.75;63.17;99543.69;4481261;32;32355;-76
2023/06/07 04:14:51;;;;;;;6.12;3.58;;;;;;;21.75;63.20;99546.41;4476885;31;32341;-76
2023/06/07 04:17:18;;;;;;;6.37;3.42;;;;;;;21.77;63.23;99547.06;4480104;32;33824;-75
2023/06/07 04:19:48;;;;;;;6.43;3.35;;;;;;;21.78;63.10;99546.84;4476723;32;32794;-73
2023/06/07 04:22:18;;;;;;;6.65;3.45;;;;;;;21.80;63.01;99552.13;4479692;32;33216;-73
2023/06/07 04:24:46;;;;;;;5.47;3.00;;;;;;;21.77;62.92;99550.63;4479531;31;31989;-74
2023/06/07 04:27:18;;;;;;;8.93;3.80;;;;;;;21.74;62.80;99553.72;4483323;32;33829;-77
2023/06/07 04:29:48;;;;;;;5.30;2.70;;;;;;;21.64;63.17;99555.91;4470101;32;33670;-79
2023/06/07 04:32:19;;;;;;;10.95;4.12;;;;;;;21.70;62.88;99554.28;4481524;32;34143;-79
2023/06/07 04:34:48;;;;;;;5.43;2.67;;;;;;;21.71;62.88;99553.28;4481591;31;34443;-80
2023/06/07 04:37:17;;;;;;;4.95;2.85;;;;;;;21.63;63.07;99554.22;4474501;32;34892;-80
2023/06/07 04:39:48;;;;;;;4.93;2.40;;;;;;;21.61;63.08;99546.25;4480437;32;32790;-80
2023/06/07 04:42:17;;;;;;;9.93;3.62;;;;;;;21.63;63.10;99548.75;4478470;31;33953;-79
2023/06/07 04:44:45;;;;;;;6.45;3.65;;;;;;;21.59;63.49;99540.12;4479935;31;35807;-80
2023/06/07 04:47:13;;;;;;;5.25;2.80;;;;;;;21.64;63.72;99553.19;4482460;32;34061;-78
2023/06/07 04:49:41;;;;;;;5.35;2.87;;;;;;;21.65;63.99;99543.16;4470945;32;33943;-81
2023/06/07 04:52:12;;;;;;;6.97;3.97;;;;;;;21.04;65.60;99549.63;4480500;31;33645;-82
2023/06/07 04:54:41;;;;;;;7.28;3.58;;;;;;;21.25;65.21;99546.19;4482719;32;31737;-80
2023/06/07 04:57:09;;;;;;;5.55;3.33;;;;;;;21.16;65.54;99553.59;4483608;31;32385;-75
2023/06/07 04:59:42;;;;;;;7.07;4.43;;;;;;;21.42;64.50;99563.19;4480120;32;33155;-76
2023/06/07 05:02:10;;;;;;;8.68;5.68;;;;;;;21.55;64.30;99552.47;4484748;32;33465;-76
2023/06/07 05:04:40;;;;;;;5.90;3.55;;;;;;;21.53;64.47;99561.84;4482363;31;33462;-81
2023/06/07 05:07:08;;;;;;;6.78;3.28;;;;;;;21.62;64.06;99561.53;4482893;32;33932;-76
2023/06/07 05:09:38;;;;;;;6.35;3.67;;;;;;;21.68;64.01;99559.94;4483956;32;34079;-78
2023/06/07 05:12:07;;;;;;;16.30;4.57;;;;;;;21.58;64.31;99554.78;4483284;31;33894;-77
2023/06/07 05:14:35;;;;;;;8.07;4.22;;;;;;;21.63;63.97;99563.22;4482319;32;33577;-78
2023/06/07 05:17:03;;;;;;;5.37;3.78;;;;;;;21.46;64.37;99559.03;4481611;32;33735;-76
2023/06/07 05:19:32;;;;;;;5.93;3.20;;;;;;;21.46;62.36;99553.59;4481014;31;32395;-76
2023/06/07 05:22:00;;;;;;;9.02;4.37;;;;;;;21.37;63.00;99561.00;4483477;31;34913;-77
2023/06/07 05:24:29;;;;;;;6.03;3.37;;;;;;;21.34;63.10;99561.34;4483314;31;33524;-77
2023/06/07 05:26:56;;;;;;;5.53;3.45;;;;;;;21.46;62.94;99556.31;4480358;31;33512;-77
2023/06/07 05:29:24;;;;;;;6.87;3.75;;;;;;;21.34;63.03;99555.91;4482847;32;33693;-77
2023/06/07 05:31:52;;;;;;;6.45;3.45;;;;;;;21.41;62.74;99556.03;4478233;32;33843;-78
2023/06/07 05:34:19;;;;;;;6.05;3.75;;;;;;;21.54;62.41;99564.41;4476932;32;33672;-74
2023/06/07 05:36:47;;;;;;;6.45;3.22;;;;;;;21.59;62.57;99561.91;4480880;31;33962;-75
2023/06/07 05:39:15;;;;;;;5.50;3.85;;;;;;;21.61;62.64;99559.03;4481552;31;32522;-78
2023/06/07 05:41:44;;;;;;;6.20;3.25;;;;;;;21.65;62.14;99560.31;4476729;31;34958;-79
2023/06/07 05:44:12;;;;;;;6.87;3.53;;;;;;;21.64;62.46;99569.53;4481552;32;32193;-76
2023/06/07 05:46:40;;;;;;;8.93;4.15;;;;;;;21.65;62.73;99557.59;4479859;31;34086;-77
2023/06/07 05:49:08;;;;;;;4.68;2.55;;;;;;;21.60;62.99;99560.91;4479259;32;32314;-76
2023/06/07 05:51:36;;;;;;;6.93;3.85;;;;;;;21.60;63.08;99568.22;4483704;31;33686;-75
2023/06/07 05:54:06;;;;;;;6.95;3.10;;;;;;;21.67;63.07;99558.25;4479573;31;33353;-75
2023/06/07 05:56:34;;;;;;;8.13;3.78;;;;;;;21.49;63.87;99566.81;4484458;32;34862;-75
2023/06/07 05:59:02;;;;;;;7.82;3.75;;;;;;;21.63;62.60;99565.94;4482244;32;32728;-76
2023/06/07 06:01:30;;;;;;;5.65;2.92;;;;;;;21.69;62.19;99563.50;4477896;32;33621;-77
2023/06/07 06:03:58;;;;;;;12.93;4.90;;;;;;;21.79;62.19;99570.34;4477971;31;32732;-78
2023/06/07 06:06:25;;;;;;;6.35;4.15;;;;;;;21.74;62.50;99566.50;4475782;31;34909;-76
2023/06/07 06:08:53;;;;;;;6.70;3.95;;;;;;;21.70;61.98;99574.22;4475640;32;33988;-76
2023/06/07 06:11:21;;;;;;;6.47;3.85;;;;;;;21.70;61.82;99571.50;4481986;32;32599;-76
2023/06/07 06:13:50;;;;;;;6.50;3.62;;;;;;;21.63;61.35;99574.13;4476008;31;34404;-77
2023/06/07 06:16:17;;;;;;;6.28;3.75;;;;;;;21.63;61.13;99582.28;4480226;31;34810;-78
2023/06/07 06:18:45;;;;;;;5.95;3.80;;;;;;;21.62;61.49;99569.72;4475231;31;33842;-77
2023/06/07 06:21:14;;;;;;;7.07;4.00;;;;;;;21.65;61.87;99579.38;4480095;31;34082;-75
2023/06/07 06:23:42;;;;;;;6.60;3.83;;;;;;;21.82;61.44;99580.00;4479756;31;32474;-75
2023/06/07 06:26:10;;;;;;;5.55;3.33;;;;;;;21.82;60.84;99578.12;4484276;32;34860;-73
2023/06/07 06:28:38;;;;;;;4.32;2.45;;;;;;;21.62;61.06;99577.88;4482780;31;34832;-72
2023/06/07 06:31:06;;;;;;;3.97;2.72;;;;;;;21.71;60.40;99578.62;4483575;32;34648;-70
2023/06/07 06:33:33;;;;;;;5.43;3.25;;;;;;;21.61;61.01;99580.81;4475561;31;34533;-72
2023/06/07 06:36:01;;;;;;;5.37;2.95;;;;;;;21.49;60.88;99580.44;4479540;31;34254;-72
2023/06/07 06:38:28;;;;;;;6.55;3.10;;;;;;;21.77;60.47;99577.88;4481778;31;33953;-71
2023/06/07 06:40:56;;;;;;;6.68;2.97;;;;;;;21.54;60.16;99583.44;4482326;32;33169;-73
2023/06/07 06:43:24;;;;;;;4.62;2.97;;;;;;;21.70;59.44;99579.69;4484005;32;33503;-73
2023/06/07 06:45:52;;;;;;;6.32;3.55;;;;;;;21.73;59.42;99581.16;4480070;31;33456;-72
2023/06/07 06:48:20;;;;;;;6.10;2.97;;;;;;;21.81;59.66;99586.50;4482536;31;35242;-72
2023/06/07 06:50:49;;;;;;;8.90;4.43;;;;;;;21.78;59.66;99584.16;4481070;31;33768;-72
2023/06/07 06:53:17;;;;;;;8.23;3.53;;;;;;;21.78;59.95;99587.72;4482851;32;34752;-73
2023/06/07 06:55:45;;;;;;;5.53;3.37;;;;;;;21.69;59.88;99582.56;4479738;31;34926;-73
2023/06/07 06:58:13;;;;;;;5.45;2.72;;;;;;;21.77;59.88;99587.94;4482050;31;34040;-73
2023/06/07 07:00:41;;;;;;;7.68;3.78;;;;;;;21.94;59.62;99586.66;4478329;31;33611;-72
2023/06/07 07:03:08;;;;;;;12.73;3.80;;;;;;;21.98;59.38;99587.09;4473384;32;34343;-74
2023/06/07 07:05:36;;;;;;;7.20;4.07;;;;;;;21.70;59.97;99584.25;4481104;31;33671;-75
2023/06/07 07:08:04;;;;;;;5.03;3.05;;;;;;;21.73;60.06;99587.44;4479458;31;33548;-76
2023/06/07 07:10:32;;;;;;;6.53;3.50;;;;;;;21.57;61.29;99591.25;4479631;32;33245;-73
2023/06/07 07:12:59;;;;;;;7.40;4.25;;;;;;;21.92;59.98;99590.59;4480701;32;31973;-75
2023/06/07 07:15:27;;;;;;;7.03;4.65;;;;;;;22.05;59.78;99588.91;4480984;32;32623;-74
2023/06/07 07:17:55;;;;;;;11.98;4.37;;;;;;;22.03;58.56;99590.13;4478519;31;35624;-75
2023/06/07 07:20:22;;;;;;;6.47;3.30;;;;;;;21.97;59.61;99594.44;4473267;31;31465;-74
2023/06/07 07:22:50;;;;;;;9.85;3.95;;;;;;;22.04;59.85;99594.50;4477158;31;33561;-75
2023/06/07 07:25:19;;;;;;;6.20;3.12;;;;;;;21.79;58.87;99599.47;4482183;31;34846;-74
2023/06/07 07:27:46;;;;;;;6.65;3.70;;;;;;;21.90;58.54;99600.88;4480503;31;34087;-74
2023/06/07 07:30:15;;;;;;;8.70;4.05;;;;;;;21.98;59.25;99598.00;4480805;31;34917;-72
2023/06/07 07:32:42;;;;;;;7.60;3.62;;;;;;;22.03;58.86;99607.31;4480232;32;33299;-72
2023/06/07 07:35:10;;;;;;;7.07;3.60;;;;;;;21.86;59.70;99609.41;4482652;32;32511;-73
2023/06/07 07:37:39;;;;;;;6.07;3.45;;;;;;;22.03;59.20;99601.00;4477919;31;34730;-73
2023/06/07 07:40:12;;;;;;;10.48;3.85;;;;;;;21.89;58.48;99608.16;4480398;31;32578;-75
2023/06/07 07:42:40;;;;;;;7.15;3.95;;;;;;;21.86;59.01;99603.09;4482595;31;33585;-72
2023/06/07 07:45:08;;;;;;;8.63;4.37;;;;;;;21.91;59.63;99606.09;4482268;31;33537;-70
2023/06/07 07:47:36;;;;;;;15.00;5.03;;;;;;;21.98;58.35;99607.03;4481119;31;35083;-70
2023/06/07 07:50:05;;;;;;;8.68;3.78;;;;;;;21.71;58.48;99605.03;4475881;32;107928;-70
2023/06/07 07:52:33;;;;;;;9.05;4.18;;;;;;;21.57;60.05;99606.72;4480058;31;34403;-70
2023/06/07 07:55:02;;;;;;;8.07;4.07;;;;;;;21.88;58.84;99609.22;4480383;31;34594;-70
2023/06/07 07:57:30;;;;;;;6.80;3.92;;;;;;;21.59;59.05;99610.94;4476190;31;34286;-69
2023/06/07 07:59:58;;;;;;;9.27;4.40;;;;;;;21.66;58.82;99607.47;4481983;32;33625;-70
2023/06/07 08:02:26;;;;;;;7.22;4.68;;;;;;;21.76;59.08;99614.28;4475938;32;32057;-69
2023/06/07 08:04:54;;;;;;;10.57;3.30;;;;;;;21.77;60.10;99615.16;4480509;32;33801;-69
2023/06/07 08:07:21;;;;;;;7.87;4.00;;;;;;;22.03;59.38;99620.09;4476382;31;35095;-69
2023/06/07 08:09:49;;;;;;;7.30;4.32;;;;;;;21.92;59.58;99613.22;4475530;32;34896;-69
2023/06/07 08:12:16;;;;;;;7.35;3.72;;;;;;;22.05;59.00;99618.00;4473587;31;33129;-69
2023/06/07 08:14:44;;;;;;;7.15;4.22;;;;;;;21.91;58.72;99622.47;4474181;32;33612;-69
2023/06/07 08:17:12;;;;;;;9.43;4.82;;;;;;;21.83;59.60;99626.16;4473688;31;34089;-72
2023/06/07 08:19:39;;;;;;;7.80;4.12;;;;;;;22.05;58.97;99627.03;4479376;32;33876;-70
2023/06/07 08:22:07;;;;;;;7.68;4.45;;;;;;;21.92;59.35;99620.56;4480129;31;32126;-68
2023/06/07 08:24:34;;;;;;;7.00;4.35;;;;;;;21.79;59.62;99622.09;4480166;31;33794;-70
2023/06/07 08:27:02;;;;;;;8.85;4.68;;;;;;;21.99;58.27;99625.09;4476005;32;34928;-68
2023/06/07 08:29:30;;;;;;;8.23;4.57;;;;;;;22.07;58.02;99621.38;4481698;32;34729;-68
2023/06/07 08:31:57;;;;;;;7.45;5.15;;;;;;;22.25;58.31;99616.38;4478922;31;33368;-71
2023/06/07 08:34:28;;;;;;;6.32;4.07;;;;;;;22.43;58.28;99615.94;4481840;32;34705;-69
2023/06/07 08:37:00;;;;;;;8.40;4.80;;;;;;;22.50;57.72;99616.84;4480153;32;33830;-72
2023/06/07 08:39:28;;;;;;;8.85;4.25;;;;;;;22.26;57.28;99609.06;4480901;32;33720;-69
2023/06/07 08:41:56;;;;;;;7.20;4.68;;;;;;;22.33;58.05;99610.78;4477121;31;31878;-74
2023/06/07 08:44:23;;;;;;;7.03;4.55;;;;;;;22.44;58.58;99609.47;4481385;32;32279;-70
2023/06/07 08:46:51;;;;;;;10.02;4.90;;;;;;;22.52;57.88;99603.00;4480764;32;33838;-68
2023/06/07 08:49:19;;;;;;;7.00;4.12;;;;;;;22.50;57.30;99605.94;4470968;31;33922;-75
2023/06/07 08:51:48;;;;;;;8.27;4.57;;;;;;;22.63;57.41;99604.37;4471298;31;32225;-71
2023/06/07 08:54:25;;;;;;;8.88;5.10;;;;;;;22.02;59.18;99608.34;4478221;32;33780;-70
2023/06/07 08:56:54;;;;;;;6.70;4.18;;;;;;;22.18;58.94;99601.81;4469432;32;33666;-70
2023/06/07 08:59:24;;;;;;;7.87;5.03;;;;;;;22.22;58.72;99602.31;4472790;32;34000;-70
2023/06/07 09:01:52;;;;;;;7.12;3.72;;;;;;;22.65;57.55;99599.56;4478725;31;32422;-71
2023/06/07 09:04:20;;;;;;;9.38;4.50;;;;;;;22.61;57.44;99599.13;4479815;32;34362;-72
2023/06/07 09:06:47;;;;;;;6.12;3.53;;;;;;;22.60;58.31;99602.91;4477897;32;34359;-73
2023/06/07 09:09:15;;;;;;;4.97;3.25;;;;;;;22.84;57.33;99600.78;4478283;32;34055;-77
2023/06/07 09:11:43;;;;;;;6.57;4.10;;;;;;;22.23;57.72;99603.97;4477743;31;33585;-73
2023/06/07 09:14:11;;;;;;;8.65;3.83;;;;;;;22.68;57.34;99601.91;4476680;31;33943;-74
2023/06/07 09:16:53;;;;;;;10.52;5.22;;;;;;;22.79;56.96;99604.09;4481311;32;32879;-72
2023/06/07 09:19:41;;;;;;;9.55;3.87;;;;;;;22.66;57.51;99598.50;4480488;31;33670;-74
2023/06/07 09:22:14;;;;;;;13.50;4.37;;;;;;;22.74;58.35;99606.56;4476953;31;34498;-74
2023/06/07 09:24:42;;;;;;;5.60;3.28;;;;;;;22.50;58.87;99608.69;4477402;31;34503;-72
2023/06/07 09:27:13;;;;;;;7.57;4.12;;;;;;;22.28;59.74;99609.72;4479163;31;34340;-73
2023/06/07 09:29:44;;;;;;;13.50;6.68;;;;;;;22.77;58.47;99598.00;4476250;32;34791;-73
2023/06/07 09:32:18;;;;;;;8.02;4.50;;;;;;;23.11;57.85;99610.88;4480685;31;33420;-73
2023/06/07 09:34:49;;;;;;;8.57;4.60;;;;;;;23.20;56.64;99612.41;4480751;32;34369;-72
2023/06/07 09:37:51;;;;;;;10.20;4.68;;;;;;;23.10;56.71;99609.19;4471751;31;33772;-72
2023/06/07 09:40:19;;;;;;;6.12;4.25;;;;;;;22.96;57.14;99608.25;4480415;32;33908;-72
2023/06/07 09:42:58;;;;;;;8.32;4.97;;;;;;;23.14;57.68;99609.63;4477287;31;33393;-72
2023/06/07 09:45:26;;;;;;;7.78;4.20;;;;;;;23.11;56.88;99613.59;4477145;32;34874;-72
2023/06/07 09:48:06;;;;;;;8.38;5.18;;;;;;;23.16;56.05;99602.94;4480042;31;33745;-71
2023/06/07 09:50:33;;;;;;;7.20;3.92;;;;;;;22.54;57.92;99612.69;4476365;31;33004;-72
2023/06/07 09:53:01;;;;;;;8.48;4.95;;;;;;;23.08;56.91;99615.88;4477815;31;33443;-73
2023/06/07 09:55:30;;;;;;;8.70;4.60;;;;;;;23.14;56.05;99609.63;4480312;32;33864;-72
2023/06/07 09:57:57;;;;;;;6.90;5.00;;;;;;;23.08;55.97;99611.28;4479024;31;33949;-73
2023/06/07 10:00:26;;;;;;;7.10;4.40;;;;;;;22.70;57.87;99614.31;4474045;31;33575;-71
2023/06/07 10:03:05;;;;;;;6.93;4.22;;;;;;;22.70;57.96;99606.13;4480963;31;33405;-70
2023/06/07 10:05:34;;;;;;;8.10;4.55;;;;;;;22.90;56.68;99602.72;4482709;31;34754;-70
2023/06/07 10:08:03;;;;;;;7.82;4.45;;;;;;;22.99;56.86;99596.94;4478988;31;34917;-71
2023/06/07 10:10:34;;;;;;;6.97;4.18;;;;;;;23.17;57.23;99601.03;4474896;31;33972;-72
2023/06/07 10:13:03;;;;;;;7.97;4.47;;;;;;;23.22;56.87;99599.41;4481826;32;33349;-72
2023/06/07 10:15:32;;;;;;;7.40;4.03;;;;;;;23.45;56.43;99590.94;4478618;31;33862;-71
2023/06/07 10:18:12;;;;;;;6.75;4.75;;;;;;;23.56;56.35;99594.97;4472872;31;35069;-69
2023/06/07 10:20:47;;;;;;;10.20;6.00;;;;;;;23.49;57.10;99591.34;4468709;31;34123;-69
2023/06/07 10:23:19;;;;;;;11.00;5.05;;;;;;;23.35;56.75;99593.19;4476677;31;33587;-71
2023/06/07 10:25:58;;;;;;;13.15;6.20;;;;;;;23.36;57.04;99592.13;4479155;32;33485;-69
2023/06/07 10:28:40;;;;;;;9.63;5.60;;;;;;;23.42;56.03;99595.94;4476632;32;34023;-69
2023/06/07 10:31:13;;;;;;;7.45;4.50;;;;;;;23.55;55.94;99596.00;4472572;31;33265;-70
2023/06/07 10:33:41;;;;;;;9.82;4.95;;;;;;;23.25;56.46;99587.25;4474620;31;33396;-75
2023/06/07 10:36:09;;;;;;;8.02;5.68;;;;;;;23.19;56.69;99597.06;4478597;31;35447;-75
2023/06/07 10:38:37;;;;;;;12.65;5.03;;;;;;;23.28;55.87;99596.94;4479205;32;34065;-79
2023/06/07 10:41:06;;;;;;;12.80;4.32;;;;;;;23.34;56.36;99586.03;4472343;31;34075;-74
2023/06/07 10:43:37;;;;;;;8.80;5.47;;;;;;;23.60;56.10;99595.44;4476792;31;35023;-72
2023/06/07 10:46:23;;;;;;;9.70;5.85;;;;;;;23.69;56.05;99592.34;4473237;31;33019;-78
2023/06/07 10:48:53;;;;;;;7.93;4.32;;;;;;;23.64;55.39;99597.53;4472033;32;33773;-77
2023/06/07 10:51:44;;;;;;;9.20;5.68;;;;;;;23.88;54.22;99598.94;4461661;32;33877;-77
2023/06/07 10:54:27;;;;;;;9.52;5.55;;;;;;;23.81;54.47;99587.13;4481391;31;33130;-74
2023/06/07 10:56:55;;;;;;;10.65;5.22;;;;;;;23.74;55.57;99594.47;4478156;32;34613;-75
2023/06/07 10:59:23;;;;;;;6.93;4.62;;;;;;;23.60;56.34;99589.97;4483884;32;34213;-76
2023/06/07 11:01:52;;;;;;;9.27;5.25;;;;;;;23.76;55.27;99577.88;4477721;32;33776;-74
2023/06/07 11:04:39;;;;;;;8.27;5.53;;;;;;;24.14;54.78;99589.13;4472897;32;32950;-75
2023/06/07 11:07:38;;;;;;;8.85;5.82;;;;;;;24.04;54.51;99584.03;4478991;32;34897;-75
2023/06/07 11:10:05;;;;;;;7.68;5.45;;;;;;;23.76;55.53;99583.34;4476890;32;33892;-74
2023/06/07 11:12:44;;;;;;;11.75;6.07;;;;;;;23.85;54.84;99587.56;4477993;31;34855;-75
2023/06/07 11:15:20;;;;;;;9.25;5.80;;;;;;;24.09;53.44;99587.00;4480676;32;34364;-74
2023/06/07 11:17:55;;;;;;;12.20;6.40;;;;;;;24.05;54.82;99587.66;4476226;31;34851;-75
2023/06/07 11:20:39;;;;;;;11.73;6.37;;;;;;;24.05;54.26;99587.66;4477296;32;35027;-74
2023/06/07 11:23:27;;;;;;;10.27;7.25;;;;;;;24.13;54.75;99584.69;4478186;32;35148;-75
2023/06/07 11:26:07;;;;;;;9.63;7.00;;;;;;;24.06;55.17;99587.44;4471641;32;33416;-74
2023/06/07 11:28:39;;;;;;;13.13;8.73;;;;;;;23.85;54.55;99587.56;4474853;32;34324;-75
2023/06/07 11:31:09;;;;;;;8.50;6.30;;;;;;;24.05;54.12;99583.00;4478749;32;33918;-75
2023/06/07 11:33:37;;;;;;;12.80;6.07;;;;;;;24.10;54.18;99585.12;4476919;32;33690;-74
2023/06/07 11:36:05;;;;;;;9.10;5.82;;;;;;;24.24;53.11;99586.84;4473998;32;33744;-75
2023/06/07 11:38:33;;;;;;;10.18;6.87;;;;;;;24.38;53.40;99591.28;4478627;32;33796;-75
2023/06/07 11:41:03;;;;;;;10.55;7.05;;;;;;;23.78;54.37;99587.53;4475621;32;33761;-75
2023/06/07 11:43:31;;;;;;;9.93;6.47;;;;;;;24.07;53.50;99586.38;4479575;32;33838;-75